ホバート の空港の天気 - METARとTAF

ホバート国際空港 ( YMHB / HBA ) - オーストラリア タスマニア州、Cambridge
飛行場実況気象(Metar)
観測時間07/23 04:00 AEST (07/22 18:00 UTC)
風向・風速北 6m/s
視程10km以上
天気現象
少しの雲 雲底高度 1520m
全天の4割程度の雲 雲底高度 5030m
全天の8割程度の雲 雲底高度 6400m
気温10℃
湿度62%
気圧1013hPa
METARYMHB 221800Z 01011KT 9999 FEW050 SCT165 BKN210 10/03 Q1013 RF00.0/000.0
過去の天気等 Google飛行場航空写真 Wunderground天気予報

過去48時間のMETAR

飛行場予報(TAF)
発表時間: 7/23 03:27 AEST (7/22 17:27 UTC)
予報対象時間: 23日4時 AEST ~ 24日4時 AEST
風向・風速北 6m/s
視程10km以上
少しの雲 雲底高度 1370m
23日11時 AEST から
風向・風速北 8m/s 瞬間風速 13m/s
視程10km以上
少しの雲 雲底高度 1220m
23日15時 AEST から
風向・風速北 8m/s 瞬間風速 13m/s
視程10km以上
天気現象弱い雨
少しの雲 雲底高度 910m
全天の4割程度の雲 雲底高度 1220m
TAF YMHB 221727Z 2218/2318 35012KT 9999 FEW045
FM230100 36015G25KT 9999 FEW040
FM230500 36015G25KT 9999 -RA FEW030 SCT040